sensor_id;sensor_type;location;lat;lon;timestamp;temperature;humidity
14934;DHT22;7560;51.364;12.384;2022-07-04T00:04:50;21.90;99.40
14934;DHT22;7560;51.364;12.384;2022-07-04T00:09:53;21.70;99.90
14934;DHT22;7560;51.364;12.384;2022-07-04T00:14:55;21.60;99.90
14934;DHT22;7560;51.364;12.384;2022-07-04T00:19:57;21.50;99.90
14934;DHT22;7560;51.364;12.384;2022-07-04T00:24:59;21.40;99.90
14934;DHT22;7560;51.364;12.384;2022-07-04T00:30:01;21.30;99.90
14934;DHT22;7560;51.364;12.384;2022-07-04T00:35:04;21.10;99.90
14934;DHT22;7560;51.364;12.384;2022-07-04T00:40:06;21.00;99.90
14934;DHT22;7560;51.364;12.384;2022-07-04T00:45:09;20.80;99.90
14934;DHT22;7560;51.364;12.384;2022-07-04T00:50:11;20.50;99.90
14934;DHT22;7560;51.364;12.384;2022-07-04T00:55:13;20.40;99.90
14934;DHT22;7560;51.364;12.384;2022-07-04T01:00:17;20.20;99.90
14934;DHT22;7560;51.364;12.384;2022-07-04T01:05:20;20.10;99.90
14934;DHT22;7560;51.364;12.384;2022-07-04T01:10:21;19.90;99.90
14934;DHT22;7560;51.364;12.384;2022-07-04T01:15:23;19.70;99.90
14934;DHT22;7560;51.364;12.384;2022-07-04T01:20:25;19.60;99.90
14934;DHT22;7560;51.364;12.384;2022-07-04T01:25:27;19.60;99.90
14934;DHT22;7560;51.364;12.384;2022-07-04T01:30:29;19.40;99.90
14934;DHT22;7560;51.364;12.384;2022-07-04T01:35:31;19.30;99.90
14934;DHT22;7560;51.364;12.384;2022-07-04T01:40:33;19.30;99.90
14934;DHT22;7560;51.364;12.384;2022-07-04T01:45:35;19.20;99.90
14934;DHT22;7560;51.364;12.384;2022-07-04T01:50:39;19.10;99.90
14934;DHT22;7560;51.364;12.384;2022-07-04T01:55:41;19.00;99.90
14934;DHT22;7560;51.364;12.384;2022-07-04T02:00:43;19.00;99.90
14934;DHT22;7560;51.364;12.384;2022-07-04T02:06:03;18.90;99.90
14934;DHT22;7560;51.364;12.384;2022-07-04T02:11:05;18.90;99.90
14934;DHT22;7560;51.364;12.384;2022-07-04T02:16:07;18.90;99.90
14934;DHT22;7560;51.364;12.384;2022-07-04T02:21:08;18.80;99.90
14934;DHT22;7560;51.364;12.384;2022-07-04T02:26:10;18.80;99.90
14934;DHT22;7560;51.364;12.384;2022-07-04T02:31:12;18.80;99.90
14934;DHT22;7560;51.364;12.384;2022-07-04T02:36:14;18.80;99.90
14934;DHT22;7560;51.364;12.384;2022-07-04T02:41:16;18.70;99.90
14934;DHT22;7560;51.364;12.384;2022-07-04T02:46:18;18.60;99.90
14934;DHT22;7560;51.364;12.384;2022-07-04T02:51:20;18.60;99.90
14934;DHT22;7560;51.364;12.384;2022-07-04T02:56:22;18.60;99.90
14934;DHT22;7560;51.364;12.384;2022-07-04T03:01:24;18.50;99.90
14934;DHT22;7560;51.364;12.384;2022-07-04T03:06:26;18.40;99.90
14934;DHT22;7560;51.364;12.384;2022-07-04T03:11:28;18.40;99.90
14934;DHT22;7560;51.364;12.384;2022-07-04T03:16:30;18.40;99.90
14934;DHT22;7560;51.364;12.384;2022-07-04T03:21:31;18.30;99.90
14934;DHT22;7560;51.364;12.384;2022-07-04T03:26:33;18.30;99.90
14934;DHT22;7560;51.364;12.384;2022-07-04T03:31:35;18.30;99.90
14934;DHT22;7560;51.364;12.384;2022-07-04T03:36:38;18.40;99.90
14934;DHT22;7560;51.364;12.384;2022-07-04T03:41:39;18.40;99.90
14934;DHT22;7560;51.364;12.384;2022-07-04T03:46:41;18.40;99.90
14934;DHT22;7560;51.364;12.384;2022-07-04T03:51:43;18.50;99.90
14934;DHT22;7560;51.364;12.384;2022-07-04T03:56:45;18.80;99.90
14934;DHT22;7560;51.364;12.384;2022-07-04T04:01:47;18.80;99.90
14934;DHT22;7560;51.364;12.384;2022-07-04T04:06:49;18.70;99.90
14934;DHT22;7560;51.364;12.384;2022-07-04T04:11:51;18.60;99.90
14934;DHT22;7560;51.364;12.384;2022-07-04T04:16:53;18.40;99.90
14934;DHT22;7560;51.364;12.384;2022-07-04T04:21:55;18.40;99.90
14934;DHT22;7560;51.364;12.384;2022-07-04T04:26:57;18.50;99.90
14934;DHT22;7560;51.364;12.384;2022-07-04T04:31:59;18.40;99.90
14934;DHT22;7560;51.364;12.384;2022-07-04T04:37:00;18.50;99.90
14934;DHT22;7560;51.364;12.384;2022-07-04T04:42:02;18.40;99.90
14934;DHT22;7560;51.364;12.384;2022-07-04T04:47:04;18.50;99.90
14934;DHT22;7560;51.364;12.384;2022-07-04T04:52:06;18.50;99.90
14934;DHT22;7560;51.364;12.384;2022-07-04T04:57:08;18.60;99.90
14934;DHT22;7560;51.364;12.384;2022-07-04T05:02:10;18.60;99.90
14934;DHT22;7560;51.364;12.384;2022-07-04T05:07:17;18.50;99.90
14934;DHT22;7560;51.364;12.384;2022-07-04T05:12:19;18.60;99.90
14934;DHT22;7560;51.364;12.384;2022-07-04T05:17:21;18.70;99.90
14934;DHT22;7560;51.364;12.384;2022-07-04T05:22:22;18.70;99.90
14934;DHT22;7560;51.364;12.384;2022-07-04T05:27:24;18.80;99.90
14934;DHT22;7560;51.364;12.384;2022-07-04T05:32:27;18.80;99.90
14934;DHT22;7560;51.364;12.384;2022-07-04T05:37:29;18.90;99.90
14934;DHT22;7560;51.364;12.384;2022-07-04T05:42:31;18.90;99.90
14934;DHT22;7560;51.364;12.384;2022-07-04T05:47:33;19.00;99.90
14934;DHT22;7560;51.364;12.384;2022-07-04T05:52:35;19.00;99.90
14934;DHT22;7560;51.364;12.384;2022-07-04T05:57:36;19.10;99.90
14934;DHT22;7560;51.364;12.384;2022-07-04T06:02:45;19.10;99.90
14934;DHT22;7560;51.364;12.384;2022-07-04T06:07:47;19.20;99.90
14934;DHT22;7560;51.364;12.384;2022-07-04T06:12:49;19.20;99.90
14934;DHT22;7560;51.364;12.384;2022-07-04T06:17:51;19.40;99.90
14934;DHT22;7560;51.364;12.384;2022-07-04T06:22:53;19.50;99.90
14934;DHT22;7560;51.364;12.384;2022-07-04T06:27:55;19.40;99.90
14934;DHT22;7560;51.364;12.384;2022-07-04T06:32:57;19.60;99.90
14934;DHT22;7560;51.364;12.384;2022-07-04T06:38:01;19.50;99.90
14934;DHT22;7560;51.364;12.384;2022-07-04T06:43:03;19.70;99.90
14934;DHT22;7560;51.364;12.384;2022-07-04T06:48:06;19.80;99.90
14934;DHT22;7560;51.364;12.384;2022-07-04T06:53:09;19.80;99.90
14934;DHT22;7560;51.364;12.384;2022-07-04T06:58:11;19.70;99.90
14934;DHT22;7560;51.364;12.384;2022-07-04T07:03:14;19.90;99.90
14934;DHT22;7560;51.364;12.384;2022-07-04T07:08:16;19.80;99.90
14934;DHT22;7560;51.364;12.384;2022-07-04T07:13:17;20.10;99.90
14934;DHT22;7560;51.364;12.384;2022-07-04T07:18:20;20.20;99.90
14934;DHT22;7560;51.364;12.384;2022-07-04T07:23:21;20.10;99.90
14934;DHT22;7560;51.364;12.384;2022-07-04T07:28:23;20.30;99.90
14934;DHT22;7560;51.364;12.384;2022-07-04T07:33:25;20.30;99.90
14934;DHT22;7560;51.364;12.384;2022-07-04T07:38:27;20.80;99.90
14934;DHT22;7560;51.364;12.384;2022-07-04T07:43:28;21.20;99.90
14934;DHT22;7560;51.364;12.384;2022-07-04T07:48:30;21.50;99.90
14934;DHT22;7560;51.364;12.384;2022-07-04T07:53:32;21.80;99.90
14934;DHT22;7560;51.364;12.384;2022-07-04T07:58:34;22.00;99.90
14934;DHT22;7560;51.364;12.384;2022-07-04T08:03:36;22.30;99.90
14934;DHT22;7560;51.364;12.384;2022-07-04T08:08:56;22.10;99.90
14934;DHT22;7560;51.364;12.384;2022-07-04T08:13:58;22.00;99.90
14934;DHT22;7560;51.364;12.384;2022-07-04T08:19:01;21.90;99.90
14934;DHT22;7560;51.364;12.384;2022-07-04T08:24:04;22.10;99.90
14934;DHT22;7560;51.364;12.384;2022-07-04T08:29:20;22.00;99.90
14934;DHT22;7560;51.364;12.384;2022-07-04T08:34:22;22.90;99.90
14934;DHT22;7560;51.364;12.384;2022-07-04T08:39:24;23.50;99.90
14934;DHT22;7560;51.364;12.384;2022-07-04T08:44:27;23.10;99.90
14934;DHT22;7560;51.364;12.384;2022-07-04T08:49:30;23.10;99.90
14934;DHT22;7560;51.364;12.384;2022-07-04T08:54:34;23.10;99.90
14934;DHT22;7560;51.364;12.384;2022-07-04T08:59:55;22.60;99.90
14934;DHT22;7560;51.364;12.384;2022-07-04T09:04:57;22.40;99.90
14934;DHT22;7560;51.364;12.384;2022-07-04T09:09:59;22.20;99.90
14934;DHT22;7560;51.364;12.384;2022-07-04T09:15:04;22.70;99.90
14934;DHT22;7560;51.364;12.384;2022-07-04T09:20:18;23.60;99.90
14934;DHT22;7560;51.364;12.384;2022-07-04T09:25:21;23.50;99.90
14934;DHT22;7560;51.364;12.384;2022-07-04T09:30:28;23.50;99.90
14934;DHT22;7560;51.364;12.384;2022-07-04T09:35:30;23.50;99.90
14934;DHT22;7560;51.364;12.384;2022-07-04T09:40:38;23.50;99.90
14934;DHT22;7560;51.364;12.384;2022-07-04T09:45:59;22.50;99.90
14934;DHT22;7560;51.364;12.384;2022-07-04T09:51:03;22.80;99.90
14934;DHT22;7560;51.364;12.384;2022-07-04T09:56:05;22.60;99.90
14934;DHT22;7560;51.364;12.384;2022-07-04T10:01:06;21.90;99.90
14934;DHT22;7560;51.364;12.384;2022-07-04T10:06:13;21.90;99.90
14934;DHT22;7560;51.364;12.384;2022-07-04T10:11:17;21.90;99.90
14934;DHT22;7560;51.364;12.384;2022-07-04T10:16:20;22.10;99.90
14934;DHT22;7560;51.364;12.384;2022-07-04T10:21:23;22.20;99.90
14934;DHT22;7560;51.364;12.384;2022-07-04T10:26:27;22.50;99.90
14934;DHT22;7560;51.364;12.384;2022-07-04T10:31:30;23.10;99.90
14934;DHT22;7560;51.364;12.384;2022-07-04T10:36:33;23.10;99.90
14934;DHT22;7560;51.364;12.384;2022-07-04T10:41:58;23.40;99.90
14934;DHT22;7560;51.364;12.384;2022-07-04T10:47:01;23.80;99.90
14934;DHT22;7560;51.364;12.384;2022-07-04T10:57:23;25.30;99.90
14934;DHT22;7560;51.364;12.384;2022-07-04T11:02:46;25.80;99.90
14934;DHT22;7560;51.364;12.384;2022-07-04T11:18:11;24.20;99.90
14934;DHT22;7560;51.364;12.384;2022-07-04T11:23:16;24.20;99.90
14934;DHT22;7560;51.364;12.384;2022-07-04T11:28:21;24.20;99.90
14934;DHT22;7560;51.364;12.384;2022-07-04T11:33:44;24.40;99.90
14934;DHT22;7560;51.364;12.384;2022-07-04T11:39:04;25.00;99.90
14934;DHT22;7560;51.364;12.384;2022-07-04T11:44:09;25.20;99.90
14934;DHT22;7560;51.364;12.384;2022-07-04T11:49:30;25.30;99.90
14934;DHT22;7560;51.364;12.384;2022-07-04T11:54:32;26.20;99.90
14934;DHT22;7560;51.364;12.384;2022-07-04T11:59:57;25.70;99.90
14934;DHT22;7560;51.364;12.384;2022-07-04T12:05:01;26.00;99.90
14934;DHT22;7560;51.364;12.384;2022-07-04T12:10:12;25.10;99.90
14934;DHT22;7560;51.364;12.384;2022-07-04T12:15:15;24.70;99.90
14934;DHT22;7560;51.364;12.384;2022-07-04T12:20:17;24.80;99.90
14934;DHT22;7560;51.364;12.384;2022-07-04T12:25:32;25.80;99.90
14934;DHT22;7560;51.364;12.384;2022-07-04T12:30:37;25.50;99.90
14934;DHT22;7560;51.364;12.384;2022-07-04T12:35:43;25.50;99.90
14934;DHT22;7560;51.364;12.384;2022-07-04T12:41:30;25.70;99.90
14934;DHT22;7560;51.364;12.384;2022-07-04T12:46:33;26.20;99.90
14934;DHT22;7560;51.364;12.384;2022-07-04T12:51:47;26.70;99.30
14934;DHT22;7560;51.364;12.384;2022-07-04T12:56:49;26.70;98.50
14934;DHT22;7560;51.364;12.384;2022-07-04T13:01:51;27.40;98.00
14934;DHT22;7560;51.364;12.384;2022-07-04T13:06:53;28.20;96.10
14934;DHT22;7560;51.364;12.384;2022-07-04T13:11:55;28.10;94.50
14934;DHT22;7560;51.364;12.384;2022-07-04T13:17:15;27.40;94.60
14934;DHT22;7560;51.364;12.384;2022-07-04T13:22:18;27.50;95.00
14934;DHT22;7560;51.364;12.384;2022-07-04T13:27:20;28.00;94.20
14934;DHT22;7560;51.364;12.384;2022-07-04T13:32:25;28.60;93.30
14934;DHT22;7560;51.364;12.384;2022-07-04T13:37:27;28.60;92.50
14934;DHT22;7560;51.364;12.384;2022-07-04T13:42:29;28.70;92.50
14934;DHT22;7560;51.364;12.384;2022-07-04T13:47:50;28.30;92.40
14934;DHT22;7560;51.364;12.384;2022-07-04T13:52:52;27.80;92.90
14934;DHT22;7560;51.364;12.384;2022-07-04T13:57:54;27.80;92.90
14934;DHT22;7560;51.364;12.384;2022-07-04T14:02:56;27.60;93.00
14934;DHT22;7560;51.364;12.384;2022-07-04T14:07:58;27.90;92.30
14934;DHT22;7560;51.364;12.384;2022-07-04T14:13:01;27.90;92.00
14934;DHT22;7560;51.364;12.384;2022-07-04T14:18:03;29.00;89.80
14934;DHT22;7560;51.364;12.384;2022-07-04T14:23:08;29.20;88.20
14934;DHT22;7560;51.364;12.384;2022-07-04T14:28:10;29.60;87.20
14934;DHT22;7560;51.364;12.384;2022-07-04T14:33:12;30.00;85.80
14934;DHT22;7560;51.364;12.384;2022-07-04T14:38:13;30.20;86.00
14934;DHT22;7560;51.364;12.384;2022-07-04T14:43:16;30.50;84.20
14934;DHT22;7560;51.364;12.384;2022-07-04T14:48:20;30.00;84.10
14934;DHT22;7560;51.364;12.384;2022-07-04T14:53:22;30.60;81.90
14934;DHT22;7560;51.364;12.384;2022-07-04T14:58:24;30.30;81.00
14934;DHT22;7560;51.364;12.384;2022-07-04T15:03:26;30.20;82.30
14934;DHT22;7560;51.364;12.384;2022-07-04T15:08:28;28.50;80.90
14934;DHT22;7560;51.364;12.384;2022-07-04T15:13:30;28.80;81.90
14934;DHT22;7560;51.364;12.384;2022-07-04T15:18:31;29.50;79.20
14934;DHT22;7560;51.364;12.384;2022-07-04T15:23:33;30.30;79.20
14934;DHT22;7560;51.364;12.384;2022-07-04T15:28:54;30.90;76.90
14934;DHT22;7560;51.364;12.384;2022-07-04T15:33:56;30.70;77.50
14934;DHT22;7560;51.364;12.384;2022-07-04T15:39:00;29.30;77.90
14934;DHT22;7560;51.364;12.384;2022-07-04T15:44:06;29.20;78.50
14934;DHT22;7560;51.364;12.384;2022-07-04T15:49:08;29.30;78.20
14934;DHT22;7560;51.364;12.384;2022-07-04T15:54:20;29.60;77.40
14934;DHT22;7560;51.364;12.384;2022-07-04T15:59:22;30.40;75.40
14934;DHT22;7560;51.364;12.384;2022-07-04T16:04:24;30.50;74.90
14934;DHT22;7560;51.364;12.384;2022-07-04T16:09:26;30.50;74.90
14934;DHT22;7560;51.364;12.384;2022-07-04T16:14:28;30.30;76.10
14934;DHT22;7560;51.364;12.384;2022-07-04T16:19:30;30.60;74.50
14934;DHT22;7560;51.364;12.384;2022-07-04T16:24:31;32.40;72.10
14934;DHT22;7560;51.364;12.384;2022-07-04T16:29:33;31.50;69.80
14934;DHT22;7560;51.364;12.384;2022-07-04T16:34:35;31.80;70.00
14934;DHT22;7560;51.364;12.384;2022-07-04T16:39:37;30.80;71.90
14934;DHT22;7560;51.364;12.384;2022-07-04T16:44:39;30.20;74.00
14934;DHT22;7560;51.364;12.384;2022-07-04T16:49:41;30.30;73.10
14934;DHT22;7560;51.364;12.384;2022-07-04T16:54:44;31.60;71.50
14934;DHT22;7560;51.364;12.384;2022-07-04T16:59:46;32.90;69.50
14934;DHT22;7560;51.364;12.384;2022-07-04T17:04:49;30.90;73.00
14934;DHT22;7560;51.364;12.384;2022-07-04T17:09:51;30.80;74.50
14934;DHT22;7560;51.364;12.384;2022-07-04T17:14:53;31.30;73.60
14934;DHT22;7560;51.364;12.384;2022-07-04T17:19:55;29.50;75.20
14934;DHT22;7560;51.364;12.384;2022-07-04T17:24:57;29.40;76.80
14934;DHT22;7560;51.364;12.384;2022-07-04T17:29:59;30.20;76.90
14934;DHT22;7560;51.364;12.384;2022-07-04T17:35:01;29.90;77.70
14934;DHT22;7560;51.364;12.384;2022-07-04T17:40:04;30.00;78.30
14934;DHT22;7560;51.364;12.384;2022-07-04T17:45:06;29.10;79.80
14934;DHT22;7560;51.364;12.384;2022-07-04T17:50:08;30.00;78.20
14934;DHT22;7560;51.364;12.384;2022-07-04T17:55:11;29.80;77.70
14934;DHT22;7560;51.364;12.384;2022-07-04T18:00:15;28.60;80.70
14934;DHT22;7560;51.364;12.384;2022-07-04T18:05:17;28.30;80.20
14934;DHT22;7560;51.364;12.384;2022-07-04T18:10:19;27.70;81.50
14934;DHT22;7560;51.364;12.384;2022-07-04T18:15:21;27.10;82.10
14934;DHT22;7560;51.364;12.384;2022-07-04T18:20:22;26.60;83.00
14934;DHT22;7560;51.364;12.384;2022-07-04T18:25:24;26.40;83.50
14934;DHT22;7560;51.364;12.384;2022-07-04T18:30:26;26.00;84.60
14934;DHT22;7560;51.364;12.384;2022-07-04T18:35:34;26.00;84.10
14934;DHT22;7560;51.364;12.384;2022-07-04T18:40:35;25.80;84.50
14934;DHT22;7560;51.364;12.384;2022-07-04T18:46:02;25.40;84.80
14934;DHT22;7560;51.364;12.384;2022-07-04T18:51:04;25.30;85.20
14934;DHT22;7560;51.364;12.384;2022-07-04T18:56:06;25.10;85.10
14934;DHT22;7560;51.364;12.384;2022-07-04T19:01:09;24.90;85.70
14934;DHT22;7560;51.364;12.384;2022-07-04T19:06:11;24.70;86.80
14934;DHT22;7560;51.364;12.384;2022-07-04T19:11:13;24.40;87.30
14934;DHT22;7560;51.364;12.384;2022-07-04T19:16:15;24.40;87.10
14934;DHT22;7560;51.364;12.384;2022-07-04T19:21:21;24.20;88.50
14934;DHT22;7560;51.364;12.384;2022-07-04T19:26:23;24.00;88.10
14934;DHT22;7560;51.364;12.384;2022-07-04T19:31:25;23.90;88.60
14934;DHT22;7560;51.364;12.384;2022-07-04T19:36:27;23.70;89.10
14934;DHT22;7560;51.364;12.384;2022-07-04T19:41:28;23.60;89.00
14934;DHT22;7560;51.364;12.384;2022-07-04T19:46:30;23.40;89.50
14934;DHT22;7560;51.364;12.384;2022-07-04T19:51:32;23.30;89.90
14934;DHT22;7560;51.364;12.384;2022-07-04T19:56:34;23.20;90.10
14934;DHT22;7560;51.364;12.384;2022-07-04T20:01:36;23.00;90.50
14934;DHT22;7560;51.364;12.384;2022-07-04T20:06:38;22.90;90.60
14934;DHT22;7560;51.364;12.384;2022-07-04T20:11:39;22.80;90.80
14934;DHT22;7560;51.364;12.384;2022-07-04T20:16:44;22.60;91.20
14934;DHT22;7560;51.364;12.384;2022-07-04T20:21:47;22.40;91.00
14934;DHT22;7560;51.364;12.384;2022-07-04T20:26:49;22.30;91.10
14934;DHT22;7560;51.364;12.384;2022-07-04T20:32:11;22.20;91.40
14934;DHT22;7560;51.364;12.384;2022-07-04T20:37:13;22.10;91.30
14934;DHT22;7560;51.364;12.384;2022-07-04T20:42:15;21.90;91.50
14934;DHT22;7560;51.364;12.384;2022-07-04T20:47:17;21.80;91.30
14934;DHT22;7560;51.364;12.384;2022-07-04T20:52:19;21.80;91.40
14934;DHT22;7560;51.364;12.384;2022-07-04T20:57:22;21.70;91.50
14934;DHT22;7560;51.364;12.384;2022-07-04T21:02:24;21.60;91.80
14934;DHT22;7560;51.364;12.384;2022-07-04T21:07:26;21.40;92.00
14934;DHT22;7560;51.364;12.384;2022-07-04T21:12:28;21.30;92.20
14934;DHT22;7560;51.364;12.384;2022-07-04T21:17:30;21.30;92.50
14934;DHT22;7560;51.364;12.384;2022-07-04T21:22:31;21.30;92.60
14934;DHT22;7560;51.364;12.384;2022-07-04T21:27:33;21.30;92.30
14934;DHT22;7560;51.364;12.384;2022-07-04T21:32:35;21.20;92.60
14934;DHT22;7560;51.364;12.384;2022-07-04T21:37:41;21.20;92.80
14934;DHT22;7560;51.364;12.384;2022-07-04T21:42:43;21.30;92.70
14934;DHT22;7560;51.364;12.384;2022-07-04T21:47:44;21.10;92.80
14934;DHT22;7560;51.364;12.384;2022-07-04T21:52:46;21.00;93.10
14934;DHT22;7560;51.364;12.384;2022-07-04T21:57:48;20.90;93.30
14934;DHT22;7560;51.364;12.384;2022-07-04T22:02:50;20.80;93.40
14934;DHT22;7560;51.364;12.384;2022-07-04T22:07:51;20.80;93.40
14934;DHT22;7560;51.364;12.384;2022-07-04T22:12:56;20.80;93.30
14934;DHT22;7560;51.364;12.384;2022-07-04T22:17:58;20.80;93.60
14934;DHT22;7560;51.364;12.384;2022-07-04T22:23:00;20.70;93.90
14934;DHT22;7560;51.364;12.384;2022-07-04T22:28:02;20.60;94.20
14934;DHT22;7560;51.364;12.384;2022-07-04T22:33:04;20.50;94.50
14934;DHT22;7560;51.364;12.384;2022-07-04T22:38:06;20.50;95.10
14934;DHT22;7560;51.364;12.384;2022-07-04T22:43:08;20.40;95.40
14934;DHT22;7560;51.364;12.384;2022-07-04T22:48:09;20.40;95.50
14934;DHT22;7560;51.364;12.384;2022-07-04T22:53:11;20.30;95.50
14934;DHT22;7560;51.364;12.384;2022-07-04T22:58:33;20.30;95.30
14934;DHT22;7560;51.364;12.384;2022-07-04T23:03:36;20.20;95.90
14934;DHT22;7560;51.364;12.384;2022-07-04T23:08:38;20.10;96.10
14934;DHT22;7560;51.364;12.384;2022-07-04T23:13:39;19.90;95.80
14934;DHT22;7560;51.364;12.384;2022-07-04T23:18:41;19.80;96.00
14934;DHT22;7560;51.364;12.384;2022-07-04T23:23:43;19.70;96.20
14934;DHT22;7560;51.364;12.384;2022-07-04T23:28:45;19.70;96.00
14934;DHT22;7560;51.364;12.384;2022-07-04T23:33:47;19.60;96.70
14934;DHT22;7560;51.364;12.384;2022-07-04T23:38:49;19.50;96.60
14934;DHT22;7560;51.364;12.384;2022-07-04T23:43:50;19.40;96.90
14934;DHT22;7560;51.364;12.384;2022-07-04T23:48:52;19.40;96.90
14934;DHT22;7560;51.364;12.384;2022-07-04T23:53:54;19.30;97.50
14934;DHT22;7560;51.364;12.384;2022-07-04T23:58:56;19.30;97.30
